Time;durP1;ratioP1;P1;durP2;ratioP2;P2;SDS_P1;SDS_P2;PMS_P1;PMS_P2;Temp;Humidity;BMP_temperature;BMP_pressure;BME280_temperature;BME280_humidity;BME280_pressure;Samples;Min_cycle;Max_cycle;Signal;HPM_P1;HPM_P2
2022/06/25 00:01:11;;;;;;;16.27;14.63;;;18.80;99.90;;;;;;5049362;28;20052;-50
2022/06/25 00:03:38;;;;;;;16.77;15.10;;;18.80;99.90;;;;;;5045845;28;20025;-49
2022/06/25 00:06:04;;;;;;;17.90;15.60;;;18.80;99.90;;;;;;5038009;28;20110;-49
2022/06/25 00:08:31;;;;;;;16.70;15.13;;;18.70;99.90;;;;;;5051632;28;20024;-50
2022/06/25 00:10:56;;;;;;;21.10;19.00;;;18.80;99.90;;;;;;5046369;28;20102;-57
2022/06/25 00:13:22;;;;;;;23.30;20.95;;;18.70;99.90;;;;;;5050970;28;20503;-50
2022/06/25 00:15:48;;;;;;;20.00;18.02;;;18.70;99.90;;;;;;5046828;28;20459;-52
2022/06/25 00:18:15;;;;;;;21.88;19.63;;;18.80;99.90;;;;;;5049321;28;20028;-50
2022/06/25 00:20:42;;;;;;;25.88;23.13;;;18.70;99.90;;;;;;5037921;28;20107;-50
2022/06/25 00:23:08;;;;;;;27.13;23.42;;;18.70;99.90;;;;;;5049845;28;20060;-51
2022/06/25 00:25:33;;;;;;;20.73;17.63;;;18.70;99.90;;;;;;5050978;28;20053;-49
2022/06/25 00:27:59;;;;;;;22.92;19.13;;;18.70;99.90;;;;;;5046163;28;20153;-51
2022/06/25 00:30:26;;;;;;;22.60;20.20;;;18.70;99.90;;;;;;5050793;28;20025;-49
2022/06/25 00:32:51;;;;;;;25.45;20.10;;;18.70;99.90;;;;;;5045230;28;20032;-50
2022/06/25 00:35:17;;;;;;;27.88;23.55;;;18.70;99.90;;;;;;5049158;28;20055;-51
2022/06/25 00:37:42;;;;;;;30.27;24.33;;;18.70;99.90;;;;;;5045534;28;20021;-49
2022/06/25 00:40:09;;;;;;;25.35;20.45;;;18.60;99.90;;;;;;5047643;28;20025;-51
2022/06/25 00:42:35;;;;;;;24.88;21.40;;;18.60;99.90;;;;;;5050491;28;20048;-50
2022/06/25 00:45:00;;;;;;;20.77;18.67;;;18.60;99.90;;;;;;5045511;28;20025;-51
2022/06/25 00:47:26;;;;;;;24.10;20.40;;;18.60;99.90;;;;;;5050585;28;20112;-51
2022/06/25 00:49:52;;;;;;;23.60;21.02;;;18.60;99.90;;;;;;5036386;28;20025;-51
2022/06/25 00:52:20;;;;;;;22.27;20.02;;;18.60;99.90;;;;;;5049931;28;20017;-52
2022/06/25 00:54:50;;;;;;;21.52;19.40;;;18.60;99.90;;;;;;5044818;28;20499;-50
2022/06/25 00:57:26;;;;;;;20.42;18.45;;;18.60;99.90;;;;;;5047800;28;20044;-52
2022/06/25 00:59:52;;;;;;;;;;;18.60;99.90;;;;;;5043704;28;20457;-51
2022/06/25 01:02:20;;;;;;;24.92;21.38;;;18.60;99.90;;;;;;5043810;28;20340;-50
2022/06/25 01:04:48;;;;;;;28.88;23.17;;;18.60;99.90;;;;;;5045637;28;20017;-49
2022/06/25 01:07:14;;;;;;;26.27;23.50;;;18.60;99.90;;;;;;5049047;28;20095;-53
2022/06/25 01:09:40;;;;;;;28.67;25.67;;;18.60;99.90;;;;;;5046626;28;20021;-53
2022/06/25 01:12:06;;;;;;;24.90;22.13;;;18.60;99.90;;;;;;5048673;28;20029;-51
2022/06/25 01:14:32;;;;;;;28.00;23.25;;;18.60;99.90;;;;;;5045415;28;20078;-50
2022/06/25 01:16:58;;;;;;;29.38;25.65;;;18.50;99.90;;;;;;5046890;28;20445;-49
2022/06/25 01:19:24;;;;;;;23.98;21.42;;;18.50;99.90;;;;;;5045036;28;20037;-49
2022/06/25 01:21:50;;;;;;;24.33;20.73;;;18.50;99.90;;;;;;5045109;28;20049;-51
2022/06/25 01:24:15;;;;;;;27.00;24.17;;;18.40;99.90;;;;;;5049864;28;20063;-50
2022/06/25 01:26:41;;;;;;;25.45;22.83;;;18.40;99.90;;;;;;5044937;28;20021;-52
2022/06/25 01:29:08;;;;;;;24.50;20.92;;;18.30;99.90;;;;;;5048844;28;20021;-53
2022/06/25 01:31:35;;;;;;;21.55;19.35;;;18.40;99.90;;;;;;5046686;28;20151;-51
2022/06/25 01:34:01;;;;;;;22.08;19.88;;;18.30;99.90;;;;;;5049026;28;20021;-54
2022/06/25 01:36:27;;;;;;;25.85;23.35;;;18.30;99.90;;;;;;5048046;28;20025;-51
2022/06/25 01:38:53;;;;;;;19.80;17.85;;;18.30;99.90;;;;;;5047545;28;20108;-53
2022/06/25 01:41:19;;;;;;;21.52;19.27;;;18.30;99.90;;;;;;5044417;28;20052;-51
2022/06/25 01:43:45;;;;;;;22.30;20.02;;;18.30;99.90;;;;;;5049717;28;20037;-53
2022/06/25 01:46:12;;;;;;;26.08;23.27;;;18.30;99.90;;;;;;5046191;28;20086;-54
2022/06/25 01:48:37;;;;;;;22.38;19.67;;;18.20;99.90;;;;;;5043826;28;20116;-51
2022/06/25 01:51:04;;;;;;;23.70;21.35;;;18.20;99.90;;;;;;5046256;28;20128;-54
2022/06/25 01:53:29;;;;;;;23.35;20.83;;;18.20;99.90;;;;;;5048150;28;20450;-52
2022/06/25 01:55:55;;;;;;;26.73;23.88;;;18.20;99.90;;;;;;5044898;28;20108;-52
2022/06/25 01:58:22;;;;;;;26.30;23.65;;;18.20;99.90;;;;;;5047634;28;20044;-54
2022/06/25 02:00:48;;;;;;;28.45;25.63;;;18.10;99.90;;;;;;5044097;28;20090;-53
2022/06/25 02:03:14;;;;;;;26.90;24.20;;;18.10;99.90;;;;;;5040640;28;20020;-54
2022/06/25 02:05:59;;;;;;;27.13;24.38;;;18.00;99.90;;;;;;5047279;28;20430;-55
2022/06/25 02:08:27;;;;;;;23.50;21.13;;;18.00;99.90;;;;;;5042686;28;20375;-52
2022/06/25 02:10:53;;;;;;;29.17;26.20;;;18.00;99.90;;;;;;5048190;28;20517;-51
2022/06/25 02:13:20;;;;;;;27.05;24.23;;;17.90;99.90;;;;;;5044328;28;20041;-53
2022/06/25 02:15:46;;;;;;;26.23;23.60;;;17.90;99.90;;;;;;5047103;28;20361;-53
2022/06/25 02:18:11;;;;;;;21.73;19.63;;;17.90;99.90;;;;;;5041930;28;20047;-50
2022/06/25 02:20:37;;;;;;;23.48;21.17;;;17.90;99.90;;;;;;5044788;28;20052;-50
2022/06/25 02:23:03;;;;;;;29.90;26.98;;;17.90;99.90;;;;;;5045394;28;20032;-51
2022/06/25 02:25:29;;;;;;;23.25;20.77;;;17.80;99.90;;;;;;5044892;28;20029;-52
2022/06/25 02:27:55;;;;;;;30.02;26.75;;;17.80;99.90;;;;;;5047269;28;20096;-53
2022/06/25 02:30:21;;;;;;;23.63;21.33;;;17.80;99.90;;;;;;5044102;28;20017;-51
2022/06/25 02:32:47;;;;;;;25.60;22.95;;;17.80;99.90;;;;;;5046257;28;20032;-51
2022/06/25 02:35:12;;;;;;;33.25;28.20;;;17.80;99.90;;;;;;5048885;28;20017;-51
2022/06/25 02:37:38;;;;;;;33.13;26.02;;;17.70;99.90;;;;;;5045601;28;20598;-53
2022/06/25 02:40:04;;;;;;;23.75;21.50;;;17.70;99.90;;;;;;5047956;28;20360;-50
2022/06/25 02:42:37;;;;;;;26.73;23.98;;;17.70;99.90;;;;;;5044623;28;20068;-49
2022/06/25 02:45:04;;;;;;;25.10;22.23;;;17.70;99.90;;;;;;5047245;28;20061;-51
2022/06/25 02:47:30;;;;;;;22.27;20.00;;;17.60;99.90;;;;;;5064371;28;20029;-54
2022/06/25 02:49:56;;;;;;;26.25;23.52;;;17.60;99.90;;;;;;5046758;28;20028;-52
2022/06/25 02:52:22;;;;;;;24.00;20.73;;;17.60;99.90;;;;;;5048390;28;20384;-52
2022/06/25 02:54:48;;;;;;;30.67;26.00;;;17.60;99.90;;;;;;5043310;28;20036;-51
2022/06/25 02:59:58;;;;;;;28.90;25.70;;;17.60;99.90;;;;;;5045774;28;20076;-50
2022/06/25 03:02:24;;;;;;;29.92;24.80;;;17.50;99.90;;;;;;5048587;28;20049;-49
2022/06/25 03:04:49;;;;;;;32.55;29.05;;;17.50;99.90;;;;;;5044337;28;20060;-50
2022/06/25 03:07:15;;;;;;;36.03;31.45;;;17.50;99.90;;;;;;5047270;28;20064;-51
2022/06/25 03:09:41;;;;;;;38.10;30.55;;;17.50;99.90;;;;;;5043652;28;20075;-52
2022/06/25 03:12:07;;;;;;;39.17;33.75;;;17.50;99.90;;;;;;5045298;28;20037;-51
2022/06/25 03:14:33;;;;;;;38.30;33.63;;;17.50;99.90;;;;;;5048486;28;20025;-51
2022/06/25 03:16:59;;;;;;;41.70;36.20;;;17.40;99.90;;;;;;5044178;28;20514;-52
2022/06/25 03:19:24;;;;;;;39.78;33.15;;;17.50;99.90;;;;;;5052370;28;20033;-50
2022/06/25 03:21:50;;;;;;;38.55;33.33;;;17.50;99.90;;;;;;5045833;28;20491;-51
2022/06/25 03:24:16;;;;;;;47.67;36.70;;;17.40;99.90;;;;;;5051060;28;20058;-50
2022/06/25 03:26:42;;;;;;;42.47;36.67;;;17.40;99.90;;;;;;5046869;28;20542;-51
2022/06/25 03:29:08;;;;;;;44.90;36.47;;;17.50;99.90;;;;;;5048219;28;20017;-50
2022/06/25 03:31:34;;;;;;;57.55;43.38;;;17.40;99.90;;;;;;5051944;28;20035;-50
2022/06/25 03:34:00;;;;;;;51.25;39.38;;;17.40;99.90;;;;;;5046176;28;20487;-50
2022/06/25 03:36:26;;;;;;;59.25;42.35;;;17.40;99.90;;;;;;5050663;28;20075;-52
2022/06/25 03:38:51;;;;;;;52.85;40.70;;;17.40;99.90;;;;;;5046845;28;20029;-50
2022/06/25 03:41:32;;;;;;;49.78;38.88;;;17.40;99.90;;;;;;5049612;28;20020;-50
2022/06/25 03:44:05;;;;;;;51.40;40.47;;;17.40;99.90;;;;;;5044779;28;20100;-52
2022/06/25 03:46:32;;;;;;;45.78;37.45;;;17.40;99.90;;;;;;5050001;28;20021;-50
2022/06/25 03:48:59;;;;;;;52.22;40.58;;;17.30;99.90;;;;;;5050137;28;20048;-49
2022/06/25 03:51:24;;;;;;;46.55;39.58;;;17.40;99.90;;;;;;5047056;28;20021;-50
2022/06/25 03:53:50;;;;;;;40.15;34.63;;;17.40;99.90;;;;;;5051375;28;20031;-51
2022/06/25 03:56:15;;;;;;;46.08;39.75;;;17.30;99.90;;;;;;5044800;28;20033;-49
2022/06/25 03:58:41;;;;;;;47.83;39.08;;;17.30;99.90;;;;;;5051754;28;20020;-49
2022/06/25 04:01:06;;;;;;;45.47;38.28;;;17.40;99.90;;;;;;5048846;28;20021;-51
2022/06/25 04:03:32;;;;;;;42.97;37.88;;;17.40;99.90;;;;;;5047630;28;20025;-51
2022/06/25 04:05:58;;;;;;;43.58;38.83;;;17.30;99.90;;;;;;5050041;28;20387;-51
2022/06/25 04:08:24;;;;;;;43.10;38.58;;;17.30;99.90;;;;;;5045027;28;20021;-50
2022/06/25 04:10:50;;;;;;;41.70;37.17;;;17.30;99.90;;;;;;5050945;28;20120;-51
2022/06/25 04:13:15;;;;;;;43.42;36.78;;;17.30;99.90;;;;;;5047381;28;20025;-54
2022/06/25 04:15:41;;;;;;;33.85;30.35;;;17.30;99.90;;;;;;5050277;28;20064;-54
2022/06/25 04:18:07;;;;;;;36.92;32.97;;;17.30;99.90;;;;;;5048618;28;20021;-51
2022/06/25 04:20:33;;;;;;;41.17;36.17;;;17.30;99.90;;;;;;5047596;28;20102;-50
2022/06/25 04:22:59;;;;;;;34.03;30.33;;;17.30;99.90;;;;;;5049694;28;20142;-52
2022/06/25 04:25:25;;;;;;;32.60;29.10;;;17.30;99.90;;;;;;5044682;28;20025;-52
2022/06/25 04:30:34;;;;;;;39.25;34.33;;;17.30;99.90;;;;;;5046578;28;20075;-50
2022/06/25 04:33:00;;;;;;;45.33;38.42;;;17.40;99.90;;;;;;5049527;28;20056;-49
2022/06/25 04:35:26;;;;;;;43.30;38.38;;;17.40;99.90;;;;;;5046277;28;20033;-50
2022/06/25 04:37:52;;;;;;;43.92;39.15;;;17.40;99.90;;;;;;5048868;28;20127;-54
2022/06/25 04:40:18;;;;;;;41.45;36.95;;;17.40;99.90;;;;;;5046419;28;20068;-52
2022/06/25 04:42:44;;;;;;;41.05;36.70;;;17.40;99.90;;;;;;5044954;28;20104;-51
2022/06/25 04:45:10;;;;;;;38.20;34.15;;;17.40;99.90;;;;;;5050213;28;20036;-49
2022/06/25 04:47:36;;;;;;;35.20;31.48;;;17.50;99.90;;;;;;5045267;28;20071;-53
2022/06/25 04:50:01;;;;;;;40.88;35.42;;;17.50;99.90;;;;;;5049240;28;20029;-53
2022/06/25 04:52:27;;;;;;;37.88;34.08;;;17.50;99.90;;;;;;5045545;28;20108;-51
2022/06/25 04:54:53;;;;;;;35.47;31.85;;;17.50;99.90;;;;;;5048313;28;20032;-50
2022/06/25 04:57:18;;;;;;;41.45;37.08;;;17.50;99.90;;;;;;5046431;28;20103;-49
2022/06/25 04:59:44;;;;;;;28.35;25.42;;;17.40;99.90;;;;;;5047655;28;20602;-51
2022/06/25 05:02:09;;;;;;;37.58;33.60;;;17.50;99.90;;;;;;5045797;28;20123;-49
2022/06/25 05:04:35;;;;;;;34.42;30.85;;;17.50;99.90;;;;;;5048727;28;20032;-50
2022/06/25 05:07:01;;;;;;;29.05;26.30;;;17.50;99.90;;;;;;5045408;28;20029;-49
2022/06/25 05:09:27;;;;;;;35.75;31.98;;;17.60;99.90;;;;;;5047768;28;20056;-49
2022/06/25 05:11:53;;;;;;;30.55;27.42;;;17.60;99.90;;;;;;5049363;28;20061;-49
2022/06/25 05:14:18;;;;;;;42.60;38.30;;;17.60;99.90;;;;;;5046515;28;20017;-51
2022/06/25 05:16:45;;;;;;;32.55;29.30;;;17.70;99.90;;;;;;5049134;28;20040;-50
2022/06/25 05:19:11;;;;;;;33.35;30.02;;;17.70;99.90;;;;;;5045805;28;20063;-51
2022/06/25 05:21:37;;;;;;;36.33;32.70;;;17.70;99.90;;;;;;5046273;28;20025;-50
2022/06/25 05:24:03;;;;;;;35.47;31.92;;;17.70;99.90;;;;;;5044581;28;20025;-51
2022/06/25 05:26:28;;;;;;;39.40;35.38;;;17.70;99.90;;;;;;5047165;28;20021;-53
2022/06/25 05:28:54;;;;;;;34.50;30.92;;;17.70;99.90;;;;;;5049636;28;20013;-50
2022/06/25 05:31:20;;;;;;;34.97;31.27;;;17.80;99.90;;;;;;5044710;28;20021;-50
2022/06/25 05:33:45;;;;;;;36.80;32.90;;;17.80;99.90;;;;;;5048489;28;20025;-50
2022/06/25 05:36:11;;;;;;;36.83;33.22;;;17.80;99.90;;;;;;5044225;28;20387;-52
2022/06/25 05:38:37;;;;;;;37.70;33.72;;;17.90;99.90;;;;;;5048165;28;20064;-50
2022/06/25 05:41:08;;;;;;;37.05;33.17;;;17.90;99.90;;;;;;5044344;28;20710;-50
2022/06/25 05:43:37;;;;;;;39.13;35.22;;;17.90;99.90;;;;;;5045511;28;20033;-51
2022/06/25 05:46:03;;;;;;;36.78;32.90;;;18.00;99.90;;;;;;5049141;28;20029;-49
2022/06/25 05:48:29;;;;;;;38.13;34.05;;;18.00;99.90;;;;;;5045905;28;20078;-51
2022/06/25 05:50:55;;;;;;;40.08;35.80;;;18.00;99.90;;;;;;5048336;28;20107;-51
2022/06/25 05:53:21;;;;;;;37.45;33.67;;;18.10;99.90;;;;;;5044825;28;20017;-50
2022/06/25 05:55:47;;;;;;;33.72;30.10;;;18.20;99.90;;;;;;5047384;28;20035;-49
2022/06/25 05:58:12;;;;;;;38.30;34.22;;;18.30;99.90;;;;;;5044150;28;20501;-50
2022/06/25 06:00:38;;;;;;;32.63;29.02;;;18.40;99.90;;;;;;5049482;28;20033;-50
2022/06/25 06:03:04;;;;;;;32.92;29.40;;;18.50;99.90;;;;;;5042906;28;20578;-49
2022/06/25 06:05:30;;;;;;;31.83;28.45;;;18.60;99.90;;;;;;5031289;28;20025;-49
2022/06/25 06:07:56;;;;;;;28.30;25.40;;;18.70;99.90;;;;;;5048392;28;20210;-53
2022/06/25 06:10:21;;;;;;;33.80;30.23;;;18.90;99.90;;;;;;5047039;28;20116;-53
2022/06/25 06:12:47;;;;;;;27.25;24.55;;;19.10;99.90;;;;;;5049209;28;20363;-49
2022/06/25 06:15:12;;;;;;;25.25;22.73;;;19.20;99.90;;;;;;5044731;28;20036;-49
2022/06/25 06:17:38;;;;;;;25.58;23.00;;;19.40;99.90;;;;;;5049252;28;20096;-53
2022/06/25 06:20:05;;;;;;;23.55;21.23;;;19.60;99.90;;;;;;5042810;28;20021;-49
2022/06/25 06:22:31;;;;;;;22.30;19.95;;;19.70;99.90;;;;;;5047558;28;20029;-50
2022/06/25 06:24:57;;;;;;;22.48;20.33;;;19.90;99.90;;;;;;5041300;28;20044;-49
2022/06/25 06:27:22;;;;;;;22.45;20.25;;;20.10;99.90;;;;;;5047268;28;20471;-53
2022/06/25 06:29:48;;;;;;;20.23;18.05;;;20.20;99.90;;;;;;5049157;28;20021;-49
2022/06/25 06:32:13;;;;;;;18.73;16.92;;;20.40;99.90;;;;;;5043957;28;20499;-49
2022/06/25 06:34:39;;;;;;;19.38;17.38;;;20.60;99.90;;;;;;5047701;28;20021;-50
2022/06/25 06:37:04;;;;;;;19.00;17.05;;;20.70;99.90;;;;;;5042720;28;20074;-49
2022/06/25 06:39:30;;;;;;;16.63;14.95;;;20.90;99.90;;;;;;5049068;28;20029;-50
2022/06/25 06:41:56;;;;;;;14.68;13.27;;;21.00;99.90;;;;;;5042428;28;20052;-51
2022/06/25 06:44:21;;;;;;;16.60;14.70;;;21.20;99.90;;;;;;5045691;28;20399;-50
2022/06/25 06:46:47;;;;;;;17.70;15.90;;;21.40;99.90;;;;;;5048923;28;20021;-53
2022/06/25 06:49:12;;;;;;;15.77;14.27;;;21.50;99.90;;;;;;5044539;28;20037;-49
2022/06/25 06:51:38;;;;;;;15.43;13.73;;;21.70;99.90;;;;;;5048745;28;20086;-50
2022/06/25 06:54:04;;;;;;;14.55;13.15;;;21.80;99.90;;;;;;5045745;28;20025;-49
2022/06/25 06:56:30;;;;;;;14.25;12.43;;;22.00;99.90;;;;;;5053090;28;20450;-49
2022/06/25 06:58:55;;;;;;;12.60;11.30;;;22.20;99.90;;;;;;5047823;28;20032;-51
2022/06/25 07:01:21;;;;;;;13.05;11.70;;;22.40;99.90;;;;;;5046787;28;20551;-49
2022/06/25 07:03:46;;;;;;;11.50;10.45;;;22.60;99.90;;;;;;5050939;28;20025;-49
2022/06/25 07:06:12;;;;;;;12.35;11.07;;;22.70;99.90;;;;;;5047861;28;20116;-49
2022/06/25 07:08:37;;;;;;;9.73;8.77;;;22.90;99.90;;;;;;5046727;28;20387;-47
2022/06/25 07:11:28;;;;;;;9.77;8.63;;;23.10;99.90;;;;;;5050772;28;20048;-49
2022/06/25 07:13:48;;;;;;;7.85;7.15;;;23.20;99.90;;;;;;5048811;28;20024;-47
2022/06/25 07:16:14;;;;;;;8.80;8.02;;;23.40;99.90;;;;;;5044243;28;20025;-52
2022/06/25 07:18:40;;;;;;;6.43;5.82;;;23.50;99.90;;;;;;5047916;28;20048;-49
2022/06/25 07:21:05;;;;;;;5.20;4.80;;;23.60;99.90;;;;;;5050091;28;20680;-51
2022/06/25 07:23:31;;;;;;;4.38;4.00;;;23.90;99.90;;;;;;5047229;28;20037;-52
2022/06/25 07:25:56;;;;;;;4.13;3.83;;;24.10;99.90;;;;;;5049673;28;20041;-50
2022/06/25 07:28:22;;;;;;;4.97;4.47;;;24.20;99.90;;;;;;5052153;28;20032;-53
2022/06/25 07:30:47;;;;;;;6.40;5.90;;;24.40;99.90;;;;;;5048581;28;20021;-50
2022/06/25 07:33:13;;;;;;;4.50;4.15;;;24.60;99.90;;;;;;5050921;28;20095;-50
2022/06/25 07:35:38;;;;;;;3.75;3.45;;;24.70;99.90;;;;;;5047426;28;20033;-49
2022/06/25 07:38:04;;;;;;;3.75;3.45;;;24.90;99.90;;;;;;5050426;28;20090;-50
2022/06/25 07:40:30;;;;;;;4.45;3.50;;;25.00;99.90;;;;;;5046870;28;20029;-52
2022/06/25 07:42:55;;;;;;;3.83;3.53;;;25.20;99.90;;;;;;5049049;28;20033;-49
2022/06/25 07:45:21;;;;;;;4.30;3.92;;;25.00;99.90;;;;;;5051663;28;20024;-53
2022/06/25 07:47:46;;;;;;;5.93;4.55;;;25.20;99.90;;;;;;5051816;28;20025;-53
2022/06/25 07:52:56;;;;;;;3.95;3.53;;;25.70;99.90;;;;;;5047105;28;20110;-51
2022/06/25 07:55:22;;;;;;;4.38;3.83;;;25.90;99.90;;;;;;5049899;28;20483;-49
2022/06/25 07:57:48;;;;;;;4.32;3.92;;;26.10;99.90;;;;;;5046683;28;20021;-51
2022/06/25 08:00:14;;;;;;;5.35;4.10;;;26.20;99.90;;;;;;5051975;28;20045;-53
2022/06/25 08:02:40;;;;;;;4.15;3.75;;;26.30;99.90;;;;;;5047166;28;20043;-53
2022/06/25 08:05:05;;;;;;;3.75;3.45;;;26.40;99.90;;;;;;5048338;28;20043;-50
2022/06/25 08:07:31;;;;;;;3.00;2.80;;;26.50;99.90;;;;;;5046568;28;20036;-51
2022/06/25 08:09:57;;;;;;;5.15;3.78;;;26.70;99.90;;;;;;5048730;28;20025;-53
2022/06/25 08:12:22;;;;;;;3.58;2.92;;;26.80;99.90;;;;;;5051178;28;20032;-51
2022/06/25 08:14:48;;;;;;;3.80;3.20;;;27.00;99.90;;;;;;5047867;28;20017;-51
2022/06/25 08:17:13;;;;;;;3.10;2.83;;;27.10;99.90;;;;;;5049811;28;20033;-49
2022/06/25 08:19:39;;;;;;;3.05;2.75;;;27.00;99.90;;;;;;5047385;28;20083;-52
2022/06/25 08:22:04;;;;;;;3.05;2.75;;;27.00;99.90;;;;;;5048775;28;20013;-51
2022/06/25 08:24:30;;;;;;;2.65;2.45;;;27.10;99.80;;;;;;5046013;28;20029;-53
2022/06/25 08:26:55;;;;;;;3.40;3.05;;;27.20;99.90;;;;;;5048166;28;20029;-50
2022/06/25 08:29:21;;;;;;;3.00;2.80;;;27.50;99.90;;;;;;5050993;28;20028;-50
2022/06/25 08:31:47;;;;;;;3.83;2.80;;;27.60;99.90;;;;;;5047242;28;20028;-51
2022/06/25 08:34:13;;;;;;;4.57;3.17;;;27.80;99.90;;;;;;5049926;28;20104;-54
2022/06/25 08:36:38;;;;;;;3.80;3.50;;;27.90;99.20;;;;;;5046676;28;20552;-52
2022/06/25 08:39:04;;;;;;;3.70;3.40;;;28.00;98.50;;;;;;5049017;28;20036;-51
2022/06/25 08:41:30;;;;;;;3.47;3.15;;;28.00;98.20;;;;;;5045443;28;20270;-52
2022/06/25 08:43:55;;;;;;;3.63;3.38;;;28.20;99.00;;;;;;5047404;28;20057;-51
2022/06/25 08:46:21;;;;;;;3.97;3.63;;;28.20;98.00;;;;;;5050735;28;20411;-48
2022/06/25 08:48:50;;;;;;;3.88;2.90;;;28.10;99.10;;;;;;5047175;28;20068;-51
2022/06/25 08:51:20;;;;;;;4.03;3.72;;;28.20;98.20;;;;;;5049374;28;20017;-52
2022/06/25 08:53:47;;;;;;;3.78;3.45;;;27.90;97.80;;;;;;5046034;28;20025;-54
2022/06/25 08:56:13;;;;;;;4.32;3.72;;;27.80;98.00;;;;;;5048611;28;20488;-54
2022/06/25 08:58:43;;;;;;;3.90;3.22;;;27.90;98.90;;;;;;5045336;28;20049;-51
2022/06/25 09:01:09;;;;;;;2.92;2.72;;;28.10;98.10;;;;;;5047577;28;20057;-51
2022/06/25 09:03:34;;;;;;;3.13;2.83;;;28.30;98.30;;;;;;5047088;28;20589;-50
2022/06/25 09:06:13;;;;;;;3.97;3.13;;;28.30;98.00;;;;;;5048593;28;20056;-51
2022/06/25 09:08:39;;;;;;;3.05;2.70;;;28.00;97.10;;;;;;5046570;28;20066;-54
2022/06/25 09:11:05;;;;;;;2.47;2.28;;;27.90;97.80;;;;;;5050165;28;20064;-53
2022/06/25 09:13:31;;;;;;;3.70;3.42;;;27.90;98.90;;;;;;5046544;28;20480;-50
2022/06/25 09:15:56;;;;;;;2.95;2.75;;;28.10;96.70;;;;;;5049037;28;20043;-50
2022/06/25 09:18:22;;;;;;;3.97;3.00;;;28.00;97.40;;;;;;5045774;28;20438;-50
2022/06/25 09:21:07;;;;;;;3.97;2.92;;;27.70;97.80;;;;;;5048243;28;20503;-54
2022/06/25 09:23:35;;;;;;;3.22;2.67;;;27.60;98.10;;;;;;5039552;28;20029;-52
2022/06/25 09:26:03;;;;;;;3.22;3.00;;;27.40;98.00;;;;;;5047361;28;20033;-50
2022/06/25 09:28:41;;;;;;;3.95;3.53;;;27.20;98.60;;;;;;5049888;28;20552;-51
2022/06/25 09:31:07;;;;;;;3.88;3.05;;;27.30;97.90;;;;;;5045599;28;20437;-50
2022/06/25 09:33:35;;;;;;;2.65;2.55;;;27.40;96.80;;;;;;5048795;28;20025;-50
2022/06/25 09:36:01;;;;;;;2.67;2.47;;;27.70;97.80;;;;;;5045561;28;20025;-50
2022/06/25 09:38:28;;;;;;;3.28;2.97;;;27.90;97.20;;;;;;5048152;28;20035;-53
2022/06/25 09:40:59;;;;;;;2.95;2.72;;;28.20;97.90;;;;;;5044670;28;20017;-52
2022/06/25 09:43:28;;;;;;;3.75;3.45;;;28.30;96.40;;;;;;5047042;28;20055;-48
2022/06/25 09:45:56;;;;;;;3.22;2.92;;;28.20;96.90;;;;;;5049738;28;20025;-51
2022/06/25 09:48:23;;;;;;;3.50;3.20;;;28.00;97.10;;;;;;5046369;28;20523;-50
2022/06/25 09:51:11;;;;;;;3.83;3.58;;;27.80;96.70;;;;;;5048495;28;20109;-51
2022/06/25 09:53:57;;;;;;;3.08;2.78;;;27.60;96.80;;;;;;5044664;28;20075;-50
2022/06/25 09:56:33;;;;;;;3.35;3.05;;;27.40;96.10;;;;;;5049033;28;20099;-49
2022/06/25 09:59:00;;;;;;;3.40;3.10;;;27.50;97.40;;;;;;5044451;28;20032;-52
2022/06/25 10:01:31;;;;;;;3.78;3.30;;;27.60;96.90;;;;;;5043738;28;20108;-49
2022/06/25 10:04:03;;;;;;;4.32;3.60;;;27.80;96.50;;;;;;5047696;28;20082;-51
2022/06/25 10:06:33;;;;;;;4.05;3.40;;;28.00;96.60;;;;;;5044482;28;20052;-52
2022/06/25 10:09:02;;;;;;;3.38;2.63;;;28.00;96.00;;;;;;5047369;28;20491;-51
2022/06/25 10:11:29;;;;;;;3.92;3.58;;;27.80;96.10;;;;;;5048800;28;20183;-53
2022/06/25 10:13:54;;;;;;;3.30;3.00;;;27.60;95.80;;;;;;5045795;28;20032;-50
2022/06/25 10:16:21;;;;;;;3.90;3.30;;;27.30;96.90;;;;;;5047396;28;20025;-51
2022/06/25 10:18:49;;;;;;;3.60;3.35;;;27.10;97.40;;;;;;5044086;28;20474;-49
2022/06/25 10:21:15;;;;;;;3.00;2.70;;;27.00;97.30;;;;;;5041054;28;20028;-54
2022/06/25 10:23:41;;;;;;;3.45;3.25;;;26.90;97.90;;;;;;5043947;28;20029;-52
2022/06/25 10:26:09;;;;;;;3.88;3.58;;;26.70;97.70;;;;;;5046717;28;20033;-52
2022/06/25 10:28:35;;;;;;;3.50;3.20;;;26.90;97.70;;;;;;5051623;28;20036;-51
2022/06/25 10:31:06;;;;;;;4.68;3.70;;;27.00;97.30;;;;;;5049973;28;20013;-51
2022/06/25 10:33:51;;;;;;;3.35;3.05;;;27.10;97.40;;;;;;5051817;28;20024;-51
2022/06/25 10:36:16;;;;;;;3.55;3.35;;;27.10;97.50;;;;;;5049342;28;20539;-54
2022/06/25 10:38:42;;;;;;;3.08;2.88;;;27.00;96.90;;;;;;5051396;28;20116;-55
2022/06/25 10:43:58;;;;;;;3.00;2.80;;;26.70;96.00;;;;;;5050034;28;20040;-55
2022/06/25 10:46:36;;;;;;;5.13;3.25;;;26.70;96.70;;;;;;5053526;28;20025;-53
2022/06/25 10:49:17;;;;;;;3.42;3.13;;;26.70;96.90;;;;;;5048356;28;20485;-53
2022/06/25 10:51:50;;;;;;;4.40;2.90;;;26.70;97.20;;;;;;5051455;28;20075;-53
2022/06/25 10:54:27;;;;;;;3.80;3.17;;;26.70;96.00;;;;;;5047063;28;20025;-55
2022/06/25 10:56:54;;;;;;;3.38;2.88;;;26.60;97.10;;;;;;5052646;28;20564;-55
2022/06/25 10:59:32;;;;;;;3.08;2.88;;;26.70;96.70;;;;;;5048528;28;20044;-55
2022/06/25 11:02:06;;;;;;;2.65;2.42;;;26.60;96.40;;;;;;5047953;28;20074;-52
2022/06/25 11:04:33;;;;;;;2.47;2.37;;;26.70;96.40;;;;;;5050777;28;20025;-51
2022/06/25 11:07:13;;;;;;;4.53;3.13;;;26.90;96.20;;;;;;5047454;28;20503;-55
2022/06/25 11:09:40;;;;;;;2.70;2.50;;;27.00;94.80;;;;;;5050029;28;20658;-55
2022/06/25 11:12:07;;;;;;;3.03;2.83;;;27.00;96.10;;;;;;5051899;28;20029;-55
2022/06/25 11:14:33;;;;;;;2.40;2.28;;;27.00;96.00;;;;;;5048856;28;20387;-51
2022/06/25 11:17:07;;;;;;;2.58;2.38;;;27.00;95.20;;;;;;5051574;28;20024;-52
2022/06/25 11:19:33;;;;;;;2.35;2.15;;;27.00;93.90;;;;;;5048318;28;20032;-50
2022/06/25 11:22:01;;;;;;;2.10;2.00;;;27.10;94.70;;;;;;5050041;28;20025;-51
2022/06/25 11:24:29;;;;;;;2.78;2.58;;;27.40;94.10;;;;;;5047471;28;20032;-51
2022/06/25 11:29:47;;;;;;;2.20;2.00;;;28.00;94.80;;;;;;5053014;28;20391;-52
2022/06/25 11:32:21;;;;;;;2.85;1.98;;;28.30;92.60;;;;;;5047578;28;20021;-54
2022/06/25 11:34:56;;;;;;;2.00;1.90;;;28.50;91.40;;;;;;5052213;28;20172;-55
2022/06/25 11:37:23;;;;;;;2.23;2.03;;;28.60;91.40;;;;;;5047065;28;20033;-56
2022/06/25 11:39:48;;;;;;;1.63;1.52;;;28.60;91.60;;;;;;5052018;28;20090;-54
2022/06/25 11:42:15;;;;;;;2.13;1.92;;;28.50;91.30;;;;;;5043766;28;20029;-50
2022/06/25 11:44:48;;;;;;;2.00;1.85;;;28.30;92.00;;;;;;5051565;28;20629;-52
2022/06/25 11:47:18;;;;;;;1.70;1.60;;;28.10;92.00;;;;;;5049057;28;20045;-50
2022/06/25 11:49:45;;;;;;;2.00;1.90;;;28.10;92.20;;;;;;5046591;28;20047;-52
2022/06/25 11:52:13;;;;;;;1.80;1.70;;;28.20;91.90;;;;;;5048314;28;20459;-53
2022/06/25 11:54:40;;;;;;;3.35;1.88;;;28.10;91.30;;;;;;5048612;28;20044;-51
2022/06/25 11:57:09;;;;;;;1.90;1.80;;;28.30;92.40;;;;;;5049377;28;20115;-54
2022/06/25 11:59:37;;;;;;;1.70;1.55;;;28.50;92.20;;;;;;5049372;28;20487;-53
2022/06/25 12:02:06;;;;;;;2.92;1.65;;;28.60;90.50;;;;;;5045777;28;20403;-52
2022/06/25 12:05:03;;;;;;;2.58;1.85;;;28.70;91.30;;;;;;5049893;28;20055;-52
2022/06/25 12:07:30;;;;;;;2.75;1.70;;;28.80;91.90;;;;;;5046932;28;20436;-52
2022/06/25 12:09:58;;;;;;;1.90;1.55;;;28.90;90.90;;;;;;5048971;28;20076;-52
2022/06/25 12:12:26;;;;;;;2.63;2.05;;;29.00;90.30;;;;;;5048970;28;20534;-52
2022/06/25 12:14:54;;;;;;;2.10;1.98;;;29.00;90.40;;;;;;5046305;28;20086;-55
2022/06/25 12:17:20;;;;;;;1.90;1.77;;;29.00;90.60;;;;;;5050172;28;20479;-53
2022/06/25 12:19:50;;;;;;;1.40;1.30;;;29.00;88.90;;;;;;5044935;28;20036;-52
2022/06/25 12:22:28;;;;;;;2.50;1.73;;;29.00;90.00;;;;;;5047022;28;20029;-52
2022/06/25 12:24:56;;;;;;;1.42;1.33;;;29.00;89.10;;;;;;5044317;28;20075;-54
2022/06/25 12:27:22;;;;;;;1.67;1.58;;;29.00;89.60;;;;;;5047927;28;20017;-54
2022/06/25 12:29:50;;;;;;;2.30;2.00;;;29.00;88.20;;;;;;5050022;28;20025;-52
2022/06/25 12:32:16;;;;;;;1.90;1.80;;;29.10;88.90;;;;;;5045385;28;20445;-53
2022/06/25 12:34:47;;;;;;;1.70;1.60;;;29.20;88.00;;;;;;5050001;28;20096;-51
2022/06/25 12:37:26;;;;;;;2.10;1.70;;;29.30;88.70;;;;;;5043646;28;20018;-55
2022/06/25 12:39:52;;;;;;;1.77;1.67;;;29.50;87.90;;;;;;5049642;28;20457;-54
2022/06/25 12:42:18;;;;;;;1.88;1.70;;;29.40;87.80;;;;;;5042185;28;20108;-50
2022/06/25 12:44:46;;;;;;;2.03;1.92;;;29.50;87.70;;;;;;5049348;28;20036;-50
2022/06/25 12:47:14;;;;;;;1.92;1.83;;;29.60;86.10;;;;;;5046721;28;20573;-50
2022/06/25 12:49:44;;;;;;;3.72;2.80;;;29.80;87.60;;;;;;5048309;28;20043;-51